sensor_id;sensor_type;location;lat;lon;timestamp;P1;P2;P0
44045;PMS7003;29709;52.396;16.796;2023-04-27T00:00:30;5;4;3
44045;PMS7003;29709;52.396;16.796;2023-04-27T00:03:43;5;5;4
44045;PMS7003;29709;52.396;16.796;2023-04-27T00:06:57;5;4;2
44045;PMS7003;29709;52.396;16.796;2023-04-27T00:10:10;3;3;2
44045;PMS7003;29709;52.396;16.796;2023-04-27T00:13:24;5;4;3
44045;PMS7003;29709;52.396;16.796;2023-04-27T00:16:38;4;4;3
44045;PMS7003;29709;52.396;16.796;2023-04-27T00:19:51;4;4;3
44045;PMS7003;29709;52.396;16.796;2023-04-27T00:23:06;10;8;6
44045;PMS7003;29709;52.396;16.796;2023-04-27T00:26:19;6;6;4
44045;PMS7003;29709;52.396;16.796;2023-04-27T00:29:34;5;5;3
44045;PMS7003;29709;52.396;16.796;2023-04-27T00:32:47;6;6;4
44045;PMS7003;29709;52.396;16.796;2023-04-27T00:36:00;4;4;2
44045;PMS7003;29709;52.396;16.796;2023-04-27T00:39:17;5;5;4
44045;PMS7003;29709;52.396;16.796;2023-04-27T00:42:30;6;4;3
44045;PMS7003;29709;52.396;16.796;2023-04-27T00:45:43;5;4;2
44045;PMS7003;29709;52.396;16.796;2023-04-27T00:48:57;6;5;3
44045;PMS7003;29709;52.396;16.796;2023-04-27T00:52:10;8;7;6
44045;PMS7003;29709;52.396;16.796;2023-04-27T00:55:23;5;5;2
44045;PMS7003;29709;52.396;16.796;2023-04-27T00:58:37;5;4;3
44045;PMS7003;29709;52.396;16.796;2023-04-27T01:01:51;4;3;2
44045;PMS7003;29709;52.396;16.796;2023-04-27T01:05:04;3;2;1
44045;PMS7003;29709;52.396;16.796;2023-04-27T01:08:19;6;6;4
44045;PMS7003;29709;52.396;16.796;2023-04-27T01:11:33;3;3;3
44045;PMS7003;29709;52.396;16.796;2023-04-27T01:14:46;5;4;3
44045;PMS7003;29709;52.396;16.796;2023-04-27T01:17:59;5;5;4
44045;PMS7003;29709;52.396;16.796;2023-04-27T01:21:13;5;4;3
44045;PMS7003;29709;52.396;16.796;2023-04-27T01:24:26;6;6;3
44045;PMS7003;29709;52.396;16.796;2023-04-27T01:27:39;5;4;3
44045;PMS7003;29709;52.396;16.796;2023-04-27T01:30:52;3;3;2
44045;PMS7003;29709;52.396;16.796;2023-04-27T01:34:05;3;2;1
44045;PMS7003;29709;52.396;16.796;2023-04-27T01:37:19;3;3;2
44045;PMS7003;29709;52.396;16.796;2023-04-27T01:40:33;4;3;3
44045;PMS7003;29709;52.396;16.796;2023-04-27T01:43:46;6;4;3
44045;PMS7003;29709;52.396;16.796;2023-04-27T01:46:59;5;4;3
44045;PMS7003;29709;52.396;16.796;2023-04-27T01:50:12;4;4;4
44045;PMS7003;29709;52.396;16.796;2023-04-27T01:53:25;6;4;3
44045;PMS7003;29709;52.396;16.796;2023-04-27T01:56:39;4;4;2
44045;PMS7003;29709;52.396;16.796;2023-04-27T01:59:53;6;5;3
44045;PMS7003;29709;52.396;16.796;2023-04-27T02:03:06;6;4;3
44045;PMS7003;29709;52.396;16.796;2023-04-27T02:06:19;2;1;1
44045;PMS7003;29709;52.396;16.796;2023-04-27T02:09:32;5;5;4
44045;PMS7003;29709;52.396;16.796;2023-04-27T02:12:45;3;3;2
44045;PMS7003;29709;52.396;16.796;2023-04-27T02:15:59;2;2;2
44045;PMS7003;29709;52.396;16.796;2023-04-27T02:19:15;1;0;0
44045;PMS7003;29709;52.396;16.796;2023-04-27T02:22:28;3;3;2
44045;PMS7003;29709;52.396;16.796;2023-04-27T02:25:41;3;1;0
44045;PMS7003;29709;52.396;16.796;2023-04-27T02:28:58;5;4;3
44045;PMS7003;29709;52.396;16.796;2023-04-27T02:32:11;3;3;3
44045;PMS7003;29709;52.396;16.796;2023-04-27T02:35:24;2;2;1
44045;PMS7003;29709;52.396;16.796;2023-04-27T02:38:37;4;3;2
44045;PMS7003;29709;52.396;16.796;2023-04-27T02:41:51;5;3;1
44045;PMS7003;29709;52.396;16.796;2023-04-27T02:45:05;2;2;2
44045;PMS7003;29709;52.396;16.796;2023-04-27T02:48:19;3;2;1
44045;PMS7003;29709;52.396;16.796;2023-04-27T02:51:32;3;2;1
44045;PMS7003;29709;52.396;16.796;2023-04-27T02:54:45;3;3;2
44045;PMS7003;29709;52.396;16.796;2023-04-27T02:57:58;2;2;1
44045;PMS7003;29709;52.396;16.796;2023-04-27T03:01:12;4;3;3
44045;PMS7003;29709;52.396;16.796;2023-04-27T03:04:26;4;4;3
44045;PMS7003;29709;52.396;16.796;2023-04-27T03:07:39;6;3;3
44045;PMS7003;29709;52.396;16.796;2023-04-27T03:10:52;4;2;2
44045;PMS7003;29709;52.396;16.796;2023-04-27T03:14:05;4;2;2
44045;PMS7003;29709;52.396;16.796;2023-04-27T03:17:19;4;3;2
44045;PMS7003;29709;52.396;16.796;2023-04-27T03:20:32;4;4;2
44045;PMS7003;29709;52.396;16.796;2023-04-27T03:23:45;3;3;2
44045;PMS7003;29709;52.396;16.796;2023-04-27T03:26:58;5;3;2
44045;PMS7003;29709;52.396;16.796;2023-04-27T03:30:12;5;4;2
44045;PMS7003;29709;52.396;16.796;2023-04-27T03:33:25;3;2;2
44045;PMS7003;29709;52.396;16.796;2023-04-27T03:36:41;4;2;2
44045;PMS7003;29709;52.396;16.796;2023-04-27T03:39:54;4;2;2
44045;PMS7003;29709;52.396;16.796;2023-04-27T03:43:07;4;3;3
44045;PMS7003;29709;52.396;16.796;2023-04-27T03:46:21;5;3;2
44045;PMS7003;29709;52.396;16.796;2023-04-27T03:49:34;2;2;1
44045;PMS7003;29709;52.396;16.796;2023-04-27T03:52:48;4;4;3
44045;PMS7003;29709;52.396;16.796;2023-04-27T03:56:01;2;2;2
44045;PMS7003;29709;52.396;16.796;2023-04-27T03:59:15;2;2;1
44045;PMS7003;29709;52.396;16.796;2023-04-27T04:02:28;4;3;2
44045;PMS7003;29709;52.396;16.796;2023-04-27T04:05:41;3;2;1
44045;PMS7003;29709;52.396;16.796;2023-04-27T04:08:54;2;2;1
44045;PMS7003;29709;52.396;16.796;2023-04-27T04:12:08;2;2;1
44045;PMS7003;29709;52.396;16.796;2023-04-27T04:15:21;3;2;1
44045;PMS7003;29709;52.396;16.796;2023-04-27T04:18:35;2;2;1
44045;PMS7003;29709;52.396;16.796;2023-04-27T04:21:48;2;2;1
44045;PMS7003;29709;52.396;16.796;2023-04-27T04:25:02;4;2;2
44045;PMS7003;29709;52.396;16.796;2023-04-27T04:28:16;1;1;1
44045;PMS7003;29709;52.396;16.796;2023-04-27T04:31:30;5;2;1
44045;PMS7003;29709;52.396;16.796;2023-04-27T04:34:48;4;2;1
44045;PMS7003;29709;52.396;16.796;2023-04-27T04:38:06;2;1;1
44045;PMS7003;29709;52.396;16.796;2023-04-27T04:41:20;3;3;2
44045;PMS7003;29709;52.396;16.796;2023-04-27T04:44:33;4;3;2
44045;PMS7003;29709;52.396;16.796;2023-04-27T04:47:47;2;2;1
44045;PMS7003;29709;52.396;16.796;2023-04-27T04:51:03;1;0;0
44045;PMS7003;29709;52.396;16.796;2023-04-27T04:54:17;6;4;3
44045;PMS7003;29709;52.396;16.796;2023-04-27T04:57:30;5;2;1
44045;PMS7003;29709;52.396;16.796;2023-04-27T05:00:44;1;1;1
44045;PMS7003;29709;52.396;16.796;2023-04-27T05:03:57;5;2;2
44045;PMS7003;29709;52.396;16.796;2023-04-27T05:07:10;2;2;2
44045;PMS7003;29709;52.396;16.796;2023-04-27T05:10:24;2;2;1
44045;PMS7003;29709;52.396;16.796;2023-04-27T05:13:37;5;2;1
44045;PMS7003;29709;52.396;16.796;2023-04-27T05:16:51;2;2;2
44045;PMS7003;29709;52.396;16.796;2023-04-27T05:20:05;2;2;1
44045;PMS7003;29709;52.396;16.796;2023-04-27T05:23:21;1;1;1
44045;PMS7003;29709;52.396;16.796;2023-04-27T05:26:34;4;3;2
44045;PMS7003;29709;52.396;16.796;2023-04-27T05:29:47;2;2;2
44045;PMS7003;29709;52.396;16.796;2023-04-27T05:33:00;2;1;1
44045;PMS7003;29709;52.396;16.796;2023-04-27T05:36:15;3;2;1
44045;PMS7003;29709;52.396;16.796;2023-04-27T05:39:28;3;2;1
44045;PMS7003;29709;52.396;16.796;2023-04-27T05:42:42;1;1;1
44045;PMS7003;29709;52.396;16.796;2023-04-27T05:45:58;2;1;1
44045;PMS7003;29709;52.396;16.796;2023-04-27T05:49:11;0;0;0
44045;PMS7003;29709;52.396;16.796;2023-04-27T05:52:24;2;1;1
44045;PMS7003;29709;52.396;16.796;2023-04-27T05:55:42;1;1;1
44045;PMS7003;29709;52.396;16.796;2023-04-27T05:58:55;1;1;0
44045;PMS7003;29709;52.396;16.796;2023-04-27T06:02:09;2;0;0
44045;PMS7003;29709;52.396;16.796;2023-04-27T06:05:22;6;2;1
44045;PMS7003;29709;52.396;16.796;2023-04-27T06:08:35;2;1;1
44045;PMS7003;29709;52.396;16.796;2023-04-27T06:11:51;1;0;0
44045;PMS7003;29709;52.396;16.796;2023-04-27T06:15:04;1;1;1
44045;PMS7003;29709;52.396;16.796;2023-04-27T06:18:21;1;0;0
44045;PMS7003;29709;52.396;16.796;2023-04-27T06:21:35;2;2;1
44045;PMS7003;29709;52.396;16.796;2023-04-27T06:24:48;1;1;1
44045;PMS7003;29709;52.396;16.796;2023-04-27T06:28:01;3;2;1
44045;PMS7003;29709;52.396;16.796;2023-04-27T06:31:14;4;1;1
44045;PMS7003;29709;52.396;16.796;2023-04-27T06:34:27;2;2;1
44045;PMS7003;29709;52.396;16.796;2023-04-27T06:37:41;1;1;1
44045;PMS7003;29709;52.396;16.796;2023-04-27T06:40:54;3;1;0
44045;PMS7003;29709;52.396;16.796;2023-04-27T06:44:07;2;2;1
44045;PMS7003;29709;52.396;16.796;2023-04-27T06:47:21;0;0;0
44045;PMS7003;29709;52.396;16.796;2023-04-27T06:50:34;1;0;0
44045;PMS7003;29709;52.396;16.796;2023-04-27T06:53:47;2;1;1
44045;PMS7003;29709;52.396;16.796;2023-04-27T06:57:00;2;0;0
44045;PMS7003;29709;52.396;16.796;2023-04-27T07:00:15;2;1;0
44045;PMS7003;29709;52.396;16.796;2023-04-27T07:03:28;1;1;0
44045;PMS7003;29709;52.396;16.796;2023-04-27T07:06:43;2;1;1
44045;PMS7003;29709;52.396;16.796;2023-04-27T07:09:56;1;0;0
44045;PMS7003;29709;52.396;16.796;2023-04-27T07:13:09;0;0;0
44045;PMS7003;29709;52.396;16.796;2023-04-27T07:16:23;1;1;1
44045;PMS7003;29709;52.396;16.796;2023-04-27T07:19:36;1;1;0
44045;PMS7003;29709;52.396;16.796;2023-04-27T07:22:49;1;1;0
44045;PMS7003;29709;52.396;16.796;2023-04-27T07:26:02;0;0;0
44045;PMS7003;29709;52.396;16.796;2023-04-27T07:29:16;2;1;1
44045;PMS7003;29709;52.396;16.796;2023-04-27T07:32:29;2;1;0
44045;PMS7003;29709;52.396;16.796;2023-04-27T07:35:42;0;0;0
44045;PMS7003;29709;52.396;16.796;2023-04-27T07:38:55;1;1;0
44045;PMS7003;29709;52.396;16.796;2023-04-27T07:42:11;0;0;0
44045;PMS7003;29709;52.396;16.796;2023-04-27T07:45:24;0;0;0
44045;PMS7003;29709;52.396;16.796;2023-04-27T07:48:44;0;0;0
44045;PMS7003;29709;52.396;16.796;2023-04-27T07:51:57;0;0;0
44045;PMS7003;29709;52.396;16.796;2023-04-27T07:55:10;1;0;0
44045;PMS7003;29709;52.396;16.796;2023-04-27T07:58:23;1;1;0
44045;PMS7003;29709;52.396;16.796;2023-04-27T08:01:37;0;0;0
44045;PMS7003;29709;52.396;16.796;2023-04-27T08:04:50;1;0;0
44045;PMS7003;29709;52.396;16.796;2023-04-27T08:08:03;1;1;0
44045;PMS7003;29709;52.396;16.796;2023-04-27T08:11:17;2;0;0
44045;PMS7003;29709;52.396;16.796;2023-04-27T08:14:32;0;0;0
44045;PMS7003;29709;52.396;16.796;2023-04-27T08:17:47;1;0;0
44045;PMS7003;29709;52.396;16.796;2023-04-27T08:21:00;1;0;0
44045;PMS7003;29709;52.396;16.796;2023-04-27T08:26:16;2;1;1
44045;PMS7003;29709;52.396;16.796;2023-04-27T08:29:29;1;0;0
44045;PMS7003;29709;52.396;16.796;2023-04-27T08:32:43;2;2;1
44045;PMS7003;29709;52.396;16.796;2023-04-27T08:35:56;3;1;1
44045;PMS7003;29709;52.396;16.796;2023-04-27T08:39:09;1;1;1
44045;PMS7003;29709;52.396;16.796;2023-04-27T08:42:22;2;1;1
44045;PMS7003;29709;52.396;16.796;2023-04-27T08:45:36;4;2;1
44045;PMS7003;29709;52.396;16.796;2023-04-27T08:48:49;2;1;1
44045;PMS7003;29709;52.396;16.796;2023-04-27T08:52:09;1;1;1
44045;PMS7003;29709;52.396;16.796;2023-04-27T08:55:28;1;1;1
44045;PMS7003;29709;52.396;16.796;2023-04-27T08:58:41;3;0;0
44045;PMS7003;29709;52.396;16.796;2023-04-27T09:01:54;2;2;0
44045;PMS7003;29709;52.396;16.796;2023-04-27T09:05:14;1;1;1
44045;PMS7003;29709;52.396;16.796;2023-04-27T09:11:58;1;1;0
44045;PMS7003;29709;52.396;16.796;2023-04-27T09:15:11;2;1;0
44045;PMS7003;29709;52.396;16.796;2023-04-27T09:18:24;0;0;0
44045;PMS7003;29709;52.396;16.796;2023-04-27T09:21:38;0;0;0
44045;PMS7003;29709;52.396;16.796;2023-04-27T09:24:51;0;0;0
44045;PMS7003;29709;52.396;16.796;2023-04-27T09:28:06;2;1;1
44045;PMS7003;29709;52.396;16.796;2023-04-27T09:31:20;0;0;0
44045;PMS7003;29709;52.396;16.796;2023-04-27T09:34:37;0;0;0
44045;PMS7003;29709;52.396;16.796;2023-04-27T09:37:52;1;1;1
44045;PMS7003;29709;52.396;16.796;2023-04-27T09:41:06;0;0;0
44045;PMS7003;29709;52.396;16.796;2023-04-27T09:44:20;1;0;0
44045;PMS7003;29709;52.396;16.796;2023-04-27T09:47:33;1;1;0
44045;PMS7003;29709;52.396;16.796;2023-04-27T09:50:49;1;1;1
44045;PMS7003;29709;52.396;16.796;2023-04-27T09:54:03;1;1;1
44045;PMS7003;29709;52.396;16.796;2023-04-27T09:57:22;1;0;0
44045;PMS7003;29709;52.396;16.796;2023-04-27T10:07:37;0;0;0
44045;PMS7003;29709;52.396;16.796;2023-04-27T10:10:52;0;0;0
44045;PMS7003;29709;52.396;16.796;2023-04-27T10:14:06;2;0;0
44045;PMS7003;29709;52.396;16.796;2023-04-27T10:17:31;1;1;1
44045;PMS7003;29709;52.396;16.796;2023-04-27T10:20:45;2;1;0
44045;PMS7003;29709;52.396;16.796;2023-04-27T10:24:05;1;1;0
44045;PMS7003;29709;52.396;16.796;2023-04-27T10:27:23;1;1;0
44045;PMS7003;29709;52.396;16.796;2023-04-27T10:30:38;0;0;0
44045;PMS7003;29709;52.396;16.796;2023-04-27T10:37:21;0;0;0
44045;PMS7003;29709;52.396;16.796;2023-04-27T10:40:45;1;1;1
44045;PMS7003;29709;52.396;16.796;2023-04-27T10:50:54;0;0;0
44045;PMS7003;29709;52.396;16.796;2023-04-27T10:54:09;1;0;0
44045;PMS7003;29709;52.396;16.796;2023-04-27T10:57:23;2;2;1
44045;PMS7003;29709;52.396;16.796;2023-04-27T11:00:40;1;0;0
44045;PMS7003;29709;52.396;16.796;2023-04-27T11:03:59;3;1;1
44045;PMS7003;29709;52.396;16.796;2023-04-27T11:07:21;0;0;0
44045;PMS7003;29709;52.396;16.796;2023-04-27T11:10:37;0;0;0
44045;PMS7003;29709;52.396;16.796;2023-04-27T11:13:53;1;0;0
44045;PMS7003;29709;52.396;16.796;2023-04-27T11:17:07;0;0;0
44045;PMS7003;29709;52.396;16.796;2023-04-27T11:20:23;2;0;0
44045;PMS7003;29709;52.396;16.796;2023-04-27T11:23:37;0;0;0
44045;PMS7003;29709;52.396;16.796;2023-04-27T11:26:51;0;0;0
44045;PMS7003;29709;52.396;16.796;2023-04-27T11:30:05;0;0;0
44045;PMS7003;29709;52.396;16.796;2023-04-27T11:33:24;0;0;0
44045;PMS7003;29709;52.396;16.796;2023-04-27T11:36:39;0;0;0
44045;PMS7003;29709;52.396;16.796;2023-04-27T11:39:53;0;0;0
44045;PMS7003;29709;52.396;16.796;2023-04-27T11:43:14;0;0;0
44045;PMS7003;29709;52.396;16.796;2023-04-27T11:46:29;0;0;0
44045;PMS7003;29709;52.396;16.796;2023-04-27T11:49:45;1;1;1
44045;PMS7003;29709;52.396;16.796;2023-04-27T11:52:59;1;0;0
44045;PMS7003;29709;52.396;16.796;2023-04-27T11:56:13;0;0;0
44045;PMS7003;29709;52.396;16.796;2023-04-27T11:59:26;1;0;0
44045;PMS7003;29709;52.396;16.796;2023-04-27T12:02:41;1;1;1
44045;PMS7003;29709;52.396;16.796;2023-04-27T12:05:56;0;0;0
44045;PMS7003;29709;52.396;16.796;2023-04-27T12:09:09;2;0;0
44045;PMS7003;29709;52.396;16.796;2023-04-27T12:12:23;2;0;0
44045;PMS7003;29709;52.396;16.796;2023-04-27T12:15:36;1;1;0
44045;PMS7003;29709;52.396;16.796;2023-04-27T12:18:50;1;0;0
44045;PMS7003;29709;52.396;16.796;2023-04-27T12:22:04;1;0;0
44045;PMS7003;29709;52.396;16.796;2023-04-27T12:25:17;0;0;0
44045;PMS7003;29709;52.396;16.796;2023-04-27T12:28:31;0;0;0
44045;PMS7003;29709;52.396;16.796;2023-04-27T12:31:44;0;0;0
44045;PMS7003;29709;52.396;16.796;2023-04-27T12:34:58;1;0;0
44045;PMS7003;29709;52.396;16.796;2023-04-27T12:38:11;1;1;0
44045;PMS7003;29709;52.396;16.796;2023-04-27T12:41:24;2;0;0
44045;PMS7003;29709;52.396;16.796;2023-04-27T12:44:38;1;0;0
44045;PMS7003;29709;52.396;16.796;2023-04-27T12:47:51;2;0;0
44045;PMS7003;29709;52.396;16.796;2023-04-27T12:51:07;0;0;0
44045;PMS7003;29709;52.396;16.796;2023-04-27T12:54:20;0;0;0
44045;PMS7003;29709;52.396;16.796;2023-04-27T12:57:33;1;0;0
44045;PMS7003;29709;52.396;16.796;2023-04-27T13:00:47;0;0;0
44045;PMS7003;29709;52.396;16.796;2023-04-27T13:04:01;1;0;0
44045;PMS7003;29709;52.396;16.796;2023-04-27T13:07:15;0;0;0
44045;PMS7003;29709;52.396;16.796;2023-04-27T13:10:28;0;0;0
44045;PMS7003;29709;52.396;16.796;2023-04-27T13:13:42;1;1;0
44045;PMS7003;29709;52.396;16.796;2023-04-27T13:16:56;1;1;1
44045;PMS7003;29709;52.396;16.796;2023-04-27T13:20:09;1;0;0
44045;PMS7003;29709;52.396;16.796;2023-04-27T13:23:23;0;0;0
44045;PMS7003;29709;52.396;16.796;2023-04-27T13:26:38;0;0;0
44045;PMS7003;29709;52.396;16.796;2023-04-27T13:29:51;2;1;0
44045;PMS7003;29709;52.396;16.796;2023-04-27T13:33:04;2;0;0
44045;PMS7003;29709;52.396;16.796;2023-04-27T13:36:18;3;1;1
44045;PMS7003;29709;52.396;16.796;2023-04-27T13:39:31;1;0;0
44045;PMS7003;29709;52.396;16.796;2023-04-27T13:42:45;0;0;0
44045;PMS7003;29709;52.396;16.796;2023-04-27T13:45:58;2;0;0
44045;PMS7003;29709;52.396;16.796;2023-04-27T13:49:13;1;1;0
44045;PMS7003;29709;52.396;16.796;2023-04-27T13:52:26;0;0;0
44045;PMS7003;29709;52.396;16.796;2023-04-27T13:55:39;0;0;0
44045;PMS7003;29709;52.396;16.796;2023-04-27T13:58:53;1;0;0
44045;PMS7003;29709;52.396;16.796;2023-04-27T14:02:06;0;0;0
44045;PMS7003;29709;52.396;16.796;2023-04-27T14:05:19;1;1;0
44045;PMS7003;29709;52.396;16.796;2023-04-27T14:08:32;0;0;0
44045;PMS7003;29709;52.396;16.796;2023-04-27T14:11:46;1;0;0
44045;PMS7003;29709;52.396;16.796;2023-04-27T14:14:59;1;1;0
44045;PMS7003;29709;52.396;16.796;2023-04-27T14:18:12;0;0;0
44045;PMS7003;29709;52.396;16.796;2023-04-27T14:21:25;0;0;0
44045;PMS7003;29709;52.396;16.796;2023-04-27T14:24:39;0;0;0
44045;PMS7003;29709;52.396;16.796;2023-04-27T14:27:52;0;0;0
44045;PMS7003;29709;52.396;16.796;2023-04-27T14:31:06;1;0;0
44045;PMS7003;29709;52.396;16.796;2023-04-27T14:34:19;1;1;0
44045;PMS7003;29709;52.396;16.796;2023-04-27T14:37:32;0;0;0
44045;PMS7003;29709;52.396;16.796;2023-04-27T14:40:45;0;0;0
44045;PMS7003;29709;52.396;16.796;2023-04-27T14:43:59;1;0;0
44045;PMS7003;29709;52.396;16.796;2023-04-27T14:47:13;0;0;0
44045;PMS7003;29709;52.396;16.796;2023-04-27T14:50:26;1;0;0
44045;PMS7003;29709;52.396;16.796;2023-04-27T14:53:40;1;0;0
44045;PMS7003;29709;52.396;16.796;2023-04-27T14:56:54;0;0;0
44045;PMS7003;29709;52.396;16.796;2023-04-27T15:00:08;1;0;0
44045;PMS7003;29709;52.396;16.796;2023-04-27T15:03:24;1;0;0
44045;PMS7003;29709;52.396;16.796;2023-04-27T15:06:38;1;0;0
44045;PMS7003;29709;52.396;16.796;2023-04-27T15:09:52;1;1;0
44045;PMS7003;29709;52.396;16.796;2023-04-27T15:13:06;0;0;0
44045;PMS7003;29709;52.396;16.796;2023-04-27T15:16:19;0;0;0
44045;PMS7003;29709;52.396;16.796;2023-04-27T15:19:33;0;0;0
44045;PMS7003;29709;52.396;16.796;2023-04-27T15:22:46;0;0;0
44045;PMS7003;29709;52.396;16.796;2023-04-27T15:25:59;2;0;0
44045;PMS7003;29709;52.396;16.796;2023-04-27T15:29:12;0;0;0
44045;PMS7003;29709;52.396;16.796;2023-04-27T15:32:25;0;0;0
44045;PMS7003;29709;52.396;16.796;2023-04-27T15:35:41;0;0;0
44045;PMS7003;29709;52.396;16.796;2023-04-27T15:38:55;0;0;0
44045;PMS7003;29709;52.396;16.796;2023-04-27T15:42:09;1;1;0
44045;PMS7003;29709;52.396;16.796;2023-04-27T15:45:22;1;1;1
44045;PMS7003;29709;52.396;16.796;2023-04-27T15:51:54;0;0;0
44045;PMS7003;29709;52.396;16.796;2023-04-27T15:55:07;1;1;1
44045;PMS7003;29709;52.396;16.796;2023-04-27T15:58:21;1;0;0
44045;PMS7003;29709;52.396;16.796;2023-04-27T16:01:34;0;0;0
44045;PMS7003;29709;52.396;16.796;2023-04-27T16:04:48;4;1;1
44045;PMS7003;29709;52.396;16.796;2023-04-27T16:08:01;1;0;0
44045;PMS7003;29709;52.396;16.796;2023-04-27T16:11:14;0;0;0
44045;PMS7003;29709;52.396;16.796;2023-04-27T16:14:28;2;1;1
44045;PMS7003;29709;52.396;16.796;2023-04-27T16:17:41;1;0;0
44045;PMS7003;29709;52.396;16.796;2023-04-27T16:20:54;4;2;2
44045;PMS7003;29709;52.396;16.796;2023-04-27T16:24:07;4;3;2
44045;PMS7003;29709;52.396;16.796;2023-04-27T16:27:21;2;1;0
44045;PMS7003;29709;52.396;16.796;2023-04-27T16:30:35;51;40;29
44045;PMS7003;29709;52.396;16.796;2023-04-27T16:33:49;13;9;8
44045;PMS7003;29709;52.396;16.796;2023-04-27T16:37:03;18;16;11
44045;PMS7003;29709;52.396;16.796;2023-04-27T16:40:17;39;27;19
44045;PMS7003;29709;52.396;16.796;2023-04-27T16:43:30;79;63;42
44045;PMS7003;29709;52.396;16.796;2023-04-27T16:46:45;62;48;32
44045;PMS7003;29709;52.396;16.796;2023-04-27T16:50:00;67;52;35
44045;PMS7003;29709;52.396;16.796;2023-04-27T16:53:13;28;26;19
44045;PMS7003;29709;52.396;16.796;2023-04-27T16:56:32;59;47;31
44045;PMS7003;29709;52.396;16.796;2023-04-27T16:59:46;44;37;26
44045;PMS7003;29709;52.396;16.796;2023-04-27T17:02:59;20;20;15
44045;PMS7003;29709;52.396;16.796;2023-04-27T17:06:12;7;5;4
44045;PMS7003;29709;52.396;16.796;2023-04-27T17:09:26;7;7;5
44045;PMS7003;29709;52.396;16.796;2023-04-27T17:12:39;10;10;8
44045;PMS7003;29709;52.396;16.796;2023-04-27T17:15:52;5;5;4
44045;PMS7003;29709;52.396;16.796;2023-04-27T17:19:05;7;5;4
44045;PMS7003;29709;52.396;16.796;2023-04-27T17:22:20;4;4;3
44045;PMS7003;29709;52.396;16.796;2023-04-27T17:25:33;6;4;4
44045;PMS7003;29709;52.396;16.796;2023-04-27T17:28:46;5;5;4
44045;PMS7003;29709;52.396;16.796;2023-04-27T17:32:00;3;3;2
44045;PMS7003;29709;52.396;16.796;2023-04-27T17:35:14;2;2;1
44045;PMS7003;29709;52.396;16.796;2023-04-27T17:38:27;0;0;0
44045;PMS7003;29709;52.396;16.796;2023-04-27T17:41:40;4;2;2
44045;PMS7003;29709;52.396;16.796;2023-04-27T17:44:53;3;3;2
44045;PMS7003;29709;52.396;16.796;2023-04-27T17:48:07;8;6;5
44045;PMS7003;29709;52.396;16.796;2023-04-27T17:51:21;7;6;5
44045;PMS7003;29709;52.396;16.796;2023-04-27T17:54:34;7;6;4
44045;PMS7003;29709;52.396;16.796;2023-04-27T17:57:49;8;6;5
44045;PMS7003;29709;52.396;16.796;2023-04-27T18:01:03;5;4;2
44045;PMS7003;29709;52.396;16.796;2023-04-27T18:04:22;10;6;4
44045;PMS7003;29709;52.396;16.796;2023-04-27T18:07:36;6;6;4
44045;PMS7003;29709;52.396;16.796;2023-04-27T18:10:49;7;7;7
44045;PMS7003;29709;52.396;16.796;2023-04-27T18:14:02;7;5;5
44045;PMS7003;29709;52.396;16.796;2023-04-27T18:17:15;6;6;5
44045;PMS7003;29709;52.396;16.796;2023-04-27T18:20:29;5;2;1
44045;PMS7003;29709;52.396;16.796;2023-04-27T18:23:42;12;8;6
44045;PMS7003;29709;52.396;16.796;2023-04-27T18:26:56;9;7;5
44045;PMS7003;29709;52.396;16.796;2023-04-27T18:30:09;14;11;8
44045;PMS7003;29709;52.396;16.796;2023-04-27T18:33:23;27;16;11
44045;PMS7003;29709;52.396;16.796;2023-04-27T18:36:37;15;11;8
44045;PMS7003;29709;52.396;16.796;2023-04-27T18:39:50;13;11;6
44045;PMS7003;29709;52.396;16.796;2023-04-27T18:43:03;18;13;7
44045;PMS7003;29709;52.396;16.796;2023-04-27T18:46:17;19;11;7
44045;PMS7003;29709;52.396;16.796;2023-04-27T18:49:32;11;10;7
44045;PMS7003;29709;52.396;16.796;2023-04-27T18:52:45;14;12;9
44045;PMS7003;29709;52.396;16.796;2023-04-27T18:55:59;15;11;9
44045;PMS7003;29709;52.396;16.796;2023-04-27T18:59:13;13;8;6
44045;PMS7003;29709;52.396;16.796;2023-04-27T19:02:27;8;8;7
44045;PMS7003;29709;52.396;16.796;2023-04-27T19:05:40;18;15;11
44045;PMS7003;29709;52.396;16.796;2023-04-27T19:08:56;16;13;10
44045;PMS7003;29709;52.396;16.796;2023-04-27T19:12:10;12;10;7
44045;PMS7003;29709;52.396;16.796;2023-04-27T19:15:23;15;14;11
44045;PMS7003;29709;52.396;16.796;2023-04-27T19:18:36;20;14;10
44045;PMS7003;29709;52.396;16.796;2023-04-27T19:21:52;14;13;11
44045;PMS7003;29709;52.396;16.796;2023-04-27T19:25:06;15;13;9
44045;PMS7003;29709;52.396;16.796;2023-04-27T19:28:21;14;13;10
44045;PMS7003;29709;52.396;16.796;2023-04-27T19:31:35;30;19;13
44045;PMS7003;29709;52.396;16.796;2023-04-27T19:34:48;16;12;8
44045;PMS7003;29709;52.396;16.796;2023-04-27T19:38:01;17;14;10
44045;PMS7003;29709;52.396;16.796;2023-04-27T19:41:15;14;11;9
44045;PMS7003;29709;52.396;16.796;2023-04-27T19:44:29;18;14;11
44045;PMS7003;29709;52.396;16.796;2023-04-27T19:47:42;16;10;7
44045;PMS7003;29709;52.396;16.796;2023-04-27T19:50:56;22;16;11
44045;PMS7003;29709;52.396;16.796;2023-04-27T19:54:09;16;14;10
44045;PMS7003;29709;52.396;16.796;2023-04-27T19:57:22;25;21;15
44045;PMS7003;29709;52.396;16.796;2023-04-27T20:00:36;21;16;10
44045;PMS7003;29709;52.396;16.796;2023-04-27T20:03:49;18;16;11
44045;PMS7003;29709;52.396;16.796;2023-04-27T20:07:04;20;18;12
44045;PMS7003;29709;52.396;16.796;2023-04-27T20:10:18;18;15;11
44045;PMS7003;29709;52.396;16.796;2023-04-27T20:13:31;19;17;12
44045;PMS7003;29709;52.396;16.796;2023-04-27T20:16:44;20;17;12
44045;PMS7003;29709;52.396;16.796;2023-04-27T20:19:58;17;15;10
44045;PMS7003;29709;52.396;16.796;2023-04-27T20:23:12;19;16;13
44045;PMS7003;29709;52.396;16.796;2023-04-27T20:26:25;21;18;12
44045;PMS7003;29709;52.396;16.796;2023-04-27T20:29:40;20;15;11
44045;PMS7003;29709;52.396;16.796;2023-04-27T20:32:56;19;17;12
44045;PMS7003;29709;52.396;16.796;2023-04-27T20:36:10;16;13;8
44045;PMS7003;29709;52.396;16.796;2023-04-27T20:39:24;19;17;12
44045;PMS7003;29709;52.396;16.796;2023-04-27T20:42:37;21;18;13
44045;PMS7003;29709;52.396;16.796;2023-04-27T20:45:50;28;23;16
44045;PMS7003;29709;52.396;16.796;2023-04-27T20:49:04;23;20;14
44045;PMS7003;29709;52.396;16.796;2023-04-27T20:52:19;25;20;14
44045;PMS7003;29709;52.396;16.796;2023-04-27T20:55:32;22;20;14
44045;PMS7003;29709;52.396;16.796;2023-04-27T20:58:46;18;17;14
44045;PMS7003;29709;52.396;16.796;2023-04-27T21:01:59;19;18;12
44045;PMS7003;29709;52.396;16.796;2023-04-27T21:05:12;20;19;13
44045;PMS7003;29709;52.396;16.796;2023-04-27T21:08:26;22;20;15
44045;PMS7003;29709;52.396;16.796;2023-04-27T21:11:39;27;22;16
44045;PMS7003;29709;52.396;16.796;2023-04-27T21:14:53;21;20;15
44045;PMS7003;29709;52.396;16.796;2023-04-27T21:18:06;25;21;15
44045;PMS7003;29709;52.396;16.796;2023-04-27T21:21:20;25;22;16
44045;PMS7003;29709;52.396;16.796;2023-04-27T21:24:33;27;23;17
44045;PMS7003;29709;52.396;16.796;2023-04-27T21:27:47;19;17;14
44045;PMS7003;29709;52.396;16.796;2023-04-27T21:31:01;24;20;14
44045;PMS7003;29709;52.396;16.796;2023-04-27T21:34:14;21;20;16
44045;PMS7003;29709;52.396;16.796;2023-04-27T21:37:29;24;24;17
44045;PMS7003;29709;52.396;16.796;2023-04-27T21:40:42;23;19;15